Time;durP1;ratioP1;P1;durP2;ratioP2;P2;SDS_P1;SDS_P2;PMS_P1;PMS_P2;Temp;Humidity;BMP_temperature;BMP_pressure;BME280_temperature;BME280_humidity;BME280_pressure;Samples;Min_cycle;Max_cycle;Signal;HPM_P1;HPM_P2
2022/06/19 00:01:10;;;;;;;8.13;3.83;;;461.40;2380.80;;;;;;5033285;28;20033;-78
2022/06/19 00:03:56;;;;;;;7.85;3.50;;;461.50;2380.80;;;;;;5033059;28;20029;-79
2022/06/19 00:06:23;;;;;;;6.47;3.50;;;461.40;2380.80;;;;;;5014095;28;20045;-79
2022/06/19 00:08:51;;;;;;;7.95;3.40;;;461.50;2380.80;;;;;;5035781;28;20100;-79
2022/06/19 00:11:19;;;;;;;5.53;3.47;;;461.50;2380.80;;;;;;5018428;28;20538;-79
2022/06/19 00:13:45;;;;;;;7.15;3.63;;;461.50;2380.80;;;;;;5018648;28;20430;-80
2022/06/19 00:16:11;;;;;;;9.43;3.92;;;461.30;2380.80;;;;;;5018612;28;20034;-80
2022/06/19 00:18:40;;;;;;;6.53;3.60;;;461.20;2380.80;;;;;;5018351;28;20029;-80
2022/06/19 00:21:08;;;;;;;6.68;3.60;;;461.20;2380.80;;;;;;5018546;28;20025;-80
2022/06/19 00:23:34;;;;;;;6.85;3.70;;;461.10;2380.80;;;;;;5018369;28;20026;-80
2022/06/19 00:26:01;;;;;;;11.23;3.88;;;461.00;2380.80;;;;;;5035393;28;20099;-79
2022/06/19 00:28:27;;;;;;;5.35;3.90;;;461.10;2380.80;;;;;;5015202;28;20144;-81
2022/06/19 00:30:53;;;;;;;6.55;3.70;;;460.90;2380.80;;;;;;5015000;28;20029;-79
2022/06/19 00:33:19;;;;;;;6.53;3.58;;;461.00;2380.80;;;;;;5016008;28;20403;-80
2022/06/19 00:35:48;;;;;;;8.15;3.83;;;461.00;2380.80;;;;;;5014919;28;20125;-79
2022/06/19 00:38:14;;;;;;;6.90;4.05;;;461.00;2380.80;;;;;;5014850;28;20356;-79
2022/06/19 00:40:40;;;;;;;9.85;4.28;;;461.00;2380.80;;;;;;5015646;28;20028;-79
2022/06/19 00:43:06;;;;;;;7.53;3.60;;;460.90;2380.80;;;;;;5015897;28;20483;-80
2022/06/19 00:45:50;;;;;;;6.40;3.42;;;461.10;2380.80;;;;;;5015118;28;20033;-80
2022/06/19 00:48:30;;;;;;;7.75;3.80;;;460.90;2380.80;;;;;;5014706;28;20026;-79
2022/06/19 00:51:02;;;;;;;7.00;3.92;;;460.80;2380.80;;;;;;5015869;28;20040;-80
2022/06/19 00:53:46;;;;;;;7.37;3.93;;;436.10;2355.20;;;;;;5014449;28;20452;-80
2022/06/19 00:56:17;;;;;;;8.20;3.42;;;435.90;2355.20;;;;;;5015729;28;20033;-80
2022/06/19 00:58:45;;;;;;;7.88;4.30;;;436.10;2355.20;;;;;;5014823;28;20121;-80
2022/06/19 01:01:16;;;;;;;8.32;4.55;;;436.10;2355.20;;;;;;5015583;28;20100;-80
2022/06/19 01:04:09;;;;;;;5.82;3.63;;;436.10;2355.20;;;;;;5012644;28;20463;-79
2022/06/19 01:06:34;;;;;;;5.30;3.72;;;436.00;2355.20;;;;;;5003903;28;20034;-77
2022/06/19 01:09:03;;;;;;;8.13;4.10;;;436.10;2355.20;;;;;;5005711;28;20368;-79
2022/06/19 01:11:33;;;;;;;7.70;3.88;;;436.10;2355.20;;;;;;5016264;28;20395;-77
2022/06/19 01:14:02;;;;;;;6.35;3.67;;;436.10;2355.20;;;;;;4995849;28;20034;-77
2022/06/19 01:16:28;;;;;;;6.13;3.75;;;436.10;2355.20;;;;;;4994716;28;20026;-78
2022/06/19 01:18:54;;;;;;;7.03;3.78;;;435.90;2355.20;;;;;;5010661;28;20525;-80
2022/06/19 01:21:24;;;;;;;7.70;4.20;;;435.80;2355.20;;;;;;4995609;28;20030;-81
2022/06/19 01:23:56;;;;;;;5.10;3.55;;;435.80;2355.20;;;;;;4994799;28;20026;-82
2022/06/19 01:26:23;;;;;;;7.20;3.60;;;435.80;2355.20;;;;;;4994838;28;20030;-83
2022/06/19 01:28:57;;;;;;;7.22;4.57;;;435.60;2355.20;;;;;;5010449;28;20455;-81
2022/06/19 01:31:26;;;;;;;4.00;3.13;;;435.70;2355.20;;;;;;4994597;28;20027;-82
2022/06/19 01:33:57;;;;;;;5.15;3.58;;;435.80;2355.20;;;;;;4994395;28;20494;-82
2022/06/19 01:36:25;;;;;;;5.60;3.28;;;435.70;2355.20;;;;;;4995666;28;20035;-81
2022/06/19 01:38:52;;;;;;;4.90;3.47;;;435.70;2355.20;;;;;;4994413;28;20121;-82
2022/06/19 01:41:28;;;;;;;7.75;3.08;;;435.70;2355.20;;;;;;4994338;28;20030;-82
2022/06/19 01:43:54;;;;;;;4.88;3.13;;;435.60;2355.20;;;;;;4994149;28;20069;-82
2022/06/19 01:46:20;;;;;;;7.45;3.85;;;435.70;2355.20;;;;;;4994012;28;20026;-81
2022/06/19 01:48:46;;;;;;;8.35;4.22;;;435.50;2355.20;;;;;;4994195;28;20048;-82
2022/06/19 01:51:12;;;;;;;5.97;3.90;;;435.50;2355.20;;;;;;4995156;28;20076;-81
2022/06/19 01:53:46;;;;;;;7.57;4.00;;;435.60;2355.20;;;;;;4994178;28;20076;-82
2022/06/19 01:56:13;;;;;;;6.28;3.80;;;435.40;2355.20;;;;;;4993883;28;20041;-81
2022/06/19 01:58:42;;;;;;;5.28;3.63;;;435.40;2355.20;;;;;;4995434;28;20030;-82
2022/06/19 02:01:10;;;;;;;5.97;3.63;;;435.50;2355.20;;;;;;4994152;28;20030;-82
2022/06/19 02:03:50;;;;;;;8.32;3.85;;;435.50;2355.20;;;;;;4993819;28;20035;-82
2022/06/19 02:06:31;;;;;;;5.60;3.65;;;435.40;2355.20;;;;;;4994126;28;20030;-82
2022/06/19 02:09:00;;;;;;;5.30;3.58;;;435.30;2355.20;;;;;;4994031;28;20037;-82
2022/06/19 02:11:26;;;;;;;9.57;3.28;;;435.40;2355.20;;;;;;4993590;28;20027;-81
2022/06/19 02:13:53;;;;;;;9.40;3.20;;;435.40;2355.20;;;;;;4994314;28;20037;-80
2022/06/19 02:16:22;;;;;;;9.45;4.25;;;435.20;2355.20;;;;;;5009778;28;20070;-80
2022/06/19 02:18:52;;;;;;;8.20;4.30;;;435.30;2355.20;;;;;;4992574;28;20034;-82
2022/06/19 02:21:42;;;;;;;6.78;4.18;;;435.30;2355.20;;;;;;4992884;28;20030;-80
2022/06/19 02:24:11;;;;;;;8.52;3.72;;;410.50;2355.20;;;;;;4981700;28;20034;-80
2022/06/19 02:26:39;;;;;;;8.50;3.75;;;410.50;2355.20;;;;;;4994916;28;20026;-81
2022/06/19 02:29:11;;;;;;;7.88;3.95;;;410.50;2355.20;;;;;;4993033;28;20057;-80
2022/06/19 02:31:38;;;;;;;5.93;4.07;;;410.40;2355.20;;;;;;4992795;28;20081;-80
2022/06/19 02:34:31;;;;;;;9.63;4.45;;;410.30;2355.20;;;;;;4993439;28;20023;-81
2022/06/19 02:37:02;;;;;;;6.82;4.10;;;410.50;2355.20;;;;;;4983981;28;20116;-80
2022/06/19 02:39:46;;;;;;;5.97;4.05;;;410.50;2355.20;;;;;;4994335;28;20468;-81
2022/06/19 02:42:30;;;;;;;7.97;4.15;;;410.40;2355.20;;;;;;4993334;28;20026;-81
2022/06/19 02:45:01;;;;;;;8.95;4.70;;;410.30;2355.20;;;;;;4993500;28;20097;-78
2022/06/19 02:47:30;;;;;;;6.70;4.55;;;410.30;2355.20;;;;;;4993429;28;20472;-81
2022/06/19 02:49:56;;;;;;;8.85;3.80;;;410.40;2355.20;;;;;;4994125;28;20077;-79
2022/06/19 02:52:22;;;;;;;8.57;3.90;;;410.40;2355.20;;;;;;4994111;28;20064;-81
2022/06/19 02:54:49;;;;;;;6.65;4.18;;;410.40;2355.20;;;;;;4993072;28;20050;-81
2022/06/19 02:57:16;;;;;;;7.10;4.28;;;410.40;2355.20;;;;;;4992969;28;20073;-81
2022/06/19 02:59:42;;;;;;;8.85;3.97;;;410.30;2355.20;;;;;;4993808;28;20471;-81
2022/06/19 03:02:11;;;;;;;7.97;3.90;;;410.20;2355.20;;;;;;4992997;28;20034;-80
2022/06/19 03:04:56;;;;;;;5.68;3.85;;;410.30;2355.20;;;;;;4993017;28;20559;-81
2022/06/19 03:07:23;;;;;;;7.22;4.20;;;410.50;2355.20;;;;;;4992423;28;20065;-81
2022/06/19 03:09:49;;;;;;;7.93;4.68;;;410.50;2355.20;;;;;;4992997;28;20030;-81
2022/06/19 03:12:15;;;;;;;10.50;4.68;;;410.30;2355.20;;;;;;4993065;28;20027;-81
2022/06/19 03:14:41;;;;;;;9.88;4.38;;;410.00;2355.20;;;;;;4992724;28;20117;-81
2022/06/19 03:17:07;;;;;;;9.70;4.47;;;384.30;2329.60;;;;;;4994081;28;20034;-81
2022/06/19 03:19:34;;;;;;;8.85;4.43;;;410.10;2355.20;;;;;;4993024;28;20117;-81
2022/06/19 03:22:00;;;;;;;8.50;4.18;;;410.10;2355.20;;;;;;4992989;28;20042;-81
2022/06/19 03:24:26;;;;;;;5.53;3.85;;;410.20;2355.20;;;;;;4993224;28;20026;-81
2022/06/19 03:26:53;;;;;;;7.97;4.28;;;410.30;2355.20;;;;;;4993066;28;20340;-81
2022/06/19 03:29:18;;;;;;;6.40;4.00;;;410.50;2355.20;;;;;;4992587;28;20054;-80
2022/06/19 03:31:44;;;;;;;7.03;3.90;;;410.50;2355.20;;;;;;4992874;28;20034;-81
2022/06/19 03:34:10;;;;;;;7.38;3.90;;;410.50;2355.20;;;;;;4992782;28;20062;-80
2022/06/19 03:36:36;;;;;;;8.52;4.28;;;435.20;2355.20;;;;;;4992735;28;20030;-81
2022/06/19 03:39:02;;;;;;;8.23;4.10;;;435.30;2355.20;;;;;;4992749;28;20420;-81
2022/06/19 03:41:27;;;;;;;6.88;4.10;;;435.30;2355.20;;;;;;4993987;28;20026;-81
2022/06/19 03:43:53;;;;;;;6.65;3.85;;;435.60;2355.20;;;;;;4999985;28;20117;-81
2022/06/19 03:46:20;;;;;;;6.88;4.32;;;435.50;2355.20;;;;;;5016283;28;20042;-80
2022/06/19 03:48:51;;;;;;;8.10;5.03;;;435.60;2355.20;;;;;;5023852;28;20484;-80
2022/06/19 03:51:22;;;;;;;9.07;3.80;;;435.60;2355.20;;;;;;5027651;28;20033;-80
2022/06/19 03:53:49;;;;;;;7.90;4.53;;;435.30;2355.20;;;;;;5027421;28;20026;-80
2022/06/19 03:56:18;;;;;;;8.63;4.22;;;435.30;2355.20;;;;;;5027459;28;20033;-77
2022/06/19 03:58:47;;;;;;;8.48;4.40;;;435.20;2355.20;;;;;;5029797;28;20464;-77
2022/06/19 04:01:24;;;;;;;8.13;4.00;;;410.50;2355.20;;;;;;5030584;28;20045;-77
2022/06/19 04:03:52;;;;;;;10.80;4.18;;;;;;;;;;5019094;28;20064;-81
2022/06/19 04:06:20;;;;;;;7.80;3.90;;;;;;;;;;5016284;28;20026;-82
2022/06/19 04:08:46;;;;;;;6.60;4.25;;;;;;;;;;5017620;28;20030;-81
2022/06/19 04:11:16;;;;;;;9.15;3.90;;;;;;;;;;5015405;28;20018;-80
2022/06/19 04:13:43;;;;;;;5.95;4.28;;;;;;;;;;5016100;28;20021;-81
2022/06/19 04:16:13;;;;;;;5.47;3.85;;;;;;;;;;5016798;28;20549;-81
2022/06/19 04:18:39;;;;;;;7.90;4.07;;;435.30;2355.20;;;;;;5015500;28;20061;-80
2022/06/19 04:21:05;;;;;;;6.88;3.90;;;435.30;2355.20;;;;;;5016774;28;20029;-80
2022/06/19 04:23:31;;;;;;;14.07;5.82;;;410.50;2355.20;;;;;;5015034;28;20026;-80
2022/06/19 04:25:57;;;;;;;10.02;6.15;;;410.30;2355.20;;;;;;5016412;28;20037;-81
2022/06/19 04:28:24;;;;;;;7.78;4.10;;;410.30;2355.20;;;;;;5019628;28;20045;-80
2022/06/19 04:30:52;;;;;;;9.32;4.10;;;410.20;2355.20;;;;;;5036120;28;20433;-81
2022/06/19 04:33:20;;;;;;;7.15;4.05;;;410.20;2355.20;;;;;;5036145;28;20022;-81
2022/06/19 04:35:47;;;;;;;7.25;3.95;;;410.30;2355.20;;;;;;5018346;28;20386;-82
2022/06/19 04:38:13;;;;;;;8.07;3.20;;;410.30;2355.20;;;;;;5018127;28;20091;-81
2022/06/19 04:40:40;;;;;;;5.32;3.60;;;410.30;2355.20;;;;;;5036071;28;20112;-81
2022/06/19 04:43:06;;;;;;;6.80;3.92;;;410.50;2355.20;;;;;;5035832;28;20025;-80
2022/06/19 04:45:33;;;;;;;6.05;3.63;;;435.20;2355.20;;;;;;5035491;28;20445;-80
2022/06/19 04:47:59;;;;;;;6.85;3.60;;;435.20;2355.20;;;;;;5035614;28;20022;-81
2022/06/19 04:50:26;;;;;;;7.68;4.05;;;435.30;2355.20;;;;;;5018156;28;20048;-81
2022/06/19 04:52:52;;;;;;;7.45;3.55;;;435.20;2355.20;;;;;;5017106;28;20033;-81
2022/06/19 04:55:18;;;;;;;9.32;4.03;;;435.30;2355.20;;;;;;5018080;28;20120;-80
2022/06/19 04:57:44;;;;;;;10.07;4.47;;;435.40;2355.20;;;;;;5017837;28;20116;-81
2022/06/19 05:00:13;;;;;;;8.93;4.03;;;435.40;2355.20;;;;;;5017396;28;20083;-81
2022/06/19 05:02:39;;;;;;;6.72;3.60;;;435.40;2355.20;;;;;;5017989;28;20227;-81
2022/06/19 05:05:06;;;;;;;9.93;4.00;;;435.50;2355.20;;;;;;5017694;28;20030;-80
2022/06/19 05:07:33;;;;;;;5.43;3.83;;;435.60;2355.20;;;;;;5018587;28;20033;-83
2022/06/19 05:09:59;;;;;;;9.38;3.90;;;410.20;2355.20;;;;;;5017656;28;20252;-82
2022/06/19 05:12:26;;;;;;;9.75;4.57;;;435.50;2355.20;;;;;;5018212;28;20057;-82
2022/06/19 05:14:53;;;;;;;10.35;4.70;;;435.50;2355.20;;;;;;5018320;28;20025;-82
2022/06/19 05:17:20;;;;;;;8.27;4.80;;;435.50;2355.20;;;;;;5017666;28;20120;-81
2022/06/19 05:19:45;;;;;;;13.05;4.63;;;435.50;2355.20;;;;;;5017313;28;20034;-82
2022/06/19 05:22:11;;;;;;;6.60;4.43;;;435.50;2355.20;;;;;;5035179;28;20025;-82
2022/06/19 05:24:37;;;;;;;7.68;4.43;;;435.60;2355.20;;;;;;5017533;28;20028;-83
2022/06/19 05:27:09;;;;;;;8.02;4.15;;;435.70;2355.20;;;;;;5035174;28;20029;-82
2022/06/19 05:29:36;;;;;;;9.57;4.60;;;435.80;2355.20;;;;;;5034590;28;20574;-82
2022/06/19 05:32:04;;;;;;;7.28;4.53;;;435.90;2355.20;;;;;;5035259;28;20053;-81
2022/06/19 05:34:31;;;;;;;6.53;4.07;;;436.00;2355.20;;;;;;5034655;28;20026;-82
2022/06/19 05:36:57;;;;;;;7.78;4.50;;;435.90;2355.20;;;;;;5017129;28;20033;-82
2022/06/19 05:39:23;;;;;;;7.25;4.10;;;436.10;2355.20;;;;;;5017288;28;20088;-81
2022/06/19 05:41:49;;;;;;;6.35;4.00;;;460.90;2380.80;;;;;;5016815;28;20022;-82
2022/06/19 05:44:14;;;;;;;6.13;3.95;;;461.00;2380.80;;;;;;5017083;28;20052;-83
2022/06/19 05:46:44;;;;;;;11.38;4.25;;;461.10;2380.80;;;;;;5016812;28;20029;-81
2022/06/19 05:49:10;;;;;;;7.07;3.70;;;;;;;;;;5016819;28;20033;-83
2022/06/19 05:51:36;;;;;;;9.93;4.07;;;;;;;;;;5016992;28;20544;-83
2022/06/19 05:54:03;;;;;;;12.57;4.55;;;;;;;;;;5016659;28;20061;-81
2022/06/19 05:56:29;;;;;;;5.68;3.55;;;;;;;;;;5003744;28;20033;-83
2022/06/19 05:58:55;;;;;;;6.80;3.72;;;461.60;2380.80;;;;;;4997311;28;20428;-81
2022/06/19 06:01:22;;;;;;;4.88;3.17;;;486.40;2380.80;;;;;;5013194;28;20387;-81
2022/06/19 06:03:48;;;;;;;6.47;3.63;;;486.70;2380.80;;;;;;5013233;28;20029;-83
2022/06/19 06:06:25;;;;;;;5.18;3.53;;;486.90;2380.80;;;;;;5012821;28;20037;-83
2022/06/19 06:08:52;;;;;;;6.65;3.88;;;487.10;2380.80;;;;;;5013284;28;20029;-82
2022/06/19 06:11:21;;;;;;;7.43;3.63;;;487.10;2380.80;;;;;;5014750;28;20050;-81
2022/06/19 06:13:47;;;;;;;12.02;3.90;;;487.10;2380.80;;;;;;5014651;28;20022;-81
2022/06/19 06:16:15;;;;;;;6.90;3.35;;;487.20;2380.80;;;;;;5013216;28;20025;-81
2022/06/19 06:18:41;;;;;;;8.18;3.45;;;512.10;2380.80;;;;;;4997003;28;20037;-81
2022/06/19 06:21:11;;;;;;;9.75;3.85;;;512.00;2380.80;;;;;;5013673;28;20383;-82
2022/06/19 06:23:37;;;;;;;7.28;3.67;;;512.10;2380.80;;;;;;4996660;28;20022;-82
2022/06/19 06:26:08;;;;;;;6.65;3.75;;;512.30;2380.80;;;;;;5013016;28;20041;-81
2022/06/19 06:28:36;;;;;;;6.35;3.45;;;512.40;2380.80;;;;;;5012842;28;20050;-81
2022/06/19 06:31:02;;;;;;;5.00;3.45;;;512.50;2380.80;;;;;;5012866;28;20037;-82
2022/06/19 06:33:29;;;;;;;6.63;3.22;;;512.60;2380.80;;;;;;5013100;28;20042;-82
2022/06/19 06:35:55;;;;;;;4.93;3.53;;;512.70;2380.80;;;;;;5012859;28;20025;-80
2022/06/19 06:38:22;;;;;;;7.18;3.83;;;512.80;2380.80;;;;;;5014460;28;20411;-84
2022/06/19 06:40:48;;;;;;;4.40;3.05;;;512.90;2380.80;;;;;;5012996;28;20471;-81
2022/06/19 06:43:15;;;;;;;5.72;3.90;;;537.70;2406.40;;;;;;5012803;28;20030;-82
2022/06/19 06:45:41;;;;;;;6.50;3.65;;;537.90;2406.40;;;;;;5012546;28;20030;-82
2022/06/19 06:48:07;;;;;;;5.40;3.40;;;538.00;2406.40;;;;;;5012890;28;20043;-82
2022/06/19 06:50:34;;;;;;;7.72;3.08;;;538.00;2406.40;;;;;;5012760;28;20026;-82
2022/06/19 06:53:00;;;;;;;5.43;3.25;;;538.20;2406.40;;;;;;5013003;28;20036;-82
2022/06/19 06:55:26;;;;;;;8.23;2.97;;;538.30;2406.40;;;;;;5014085;28;20418;-82
2022/06/19 06:57:52;;;;;;;9.15;4.00;;;538.40;2406.40;;;;;;5012658;28;20032;-84
2022/06/19 07:00:21;;;;;;;6.72;3.55;;;538.50;2406.40;;;;;;5012766;28;20037;-83
2022/06/19 07:02:47;;;;;;;11.40;3.88;;;538.50;2406.40;;;;;;5012710;28;20113;-82
2022/06/19 07:05:12;;;;;;;8.38;3.88;;;563.40;2432.00;;;;;;5014059;28;20059;-83
2022/06/19 07:07:38;;;;;;;5.00;3.15;;;563.40;2432.00;;;;;;5012701;28;20030;-82
2022/06/19 07:10:05;;;;;;;7.78;3.63;;;563.50;2432.00;;;;;;4996361;28;20151;-83
2022/06/19 07:12:31;;;;;;;6.15;3.83;;;563.80;2432.00;;;;;;5012340;28;20120;-82
2022/06/19 07:14:57;;;;;;;5.85;3.47;;;564.00;2432.00;;;;;;5012638;28;20062;-82
2022/06/19 07:17:23;;;;;;;5.20;2.83;;;564.10;2432.00;;;;;;5016905;28;20026;-82
2022/06/19 07:19:49;;;;;;;8.10;3.33;;;588.90;2432.00;;;;;;5016408;28;20033;-83
2022/06/19 07:22:17;;;;;;;15.15;5.00;;;589.10;2432.00;;;;;;5016476;28;20084;-81
2022/06/19 07:24:44;;;;;;;5.78;3.67;;;589.10;2432.00;;;;;;5016494;28;20088;-80
2022/06/19 07:27:10;;;;;;;6.07;3.58;;;589.10;2432.00;;;;;;5016086;28;20029;-82
2022/06/19 07:29:45;;;;;;;5.88;3.67;;;589.30;2432.00;;;;;;5016115;28;20050;-84
2022/06/19 07:32:12;;;;;;;5.00;3.58;;;589.40;2432.00;;;;;;5016062;28;20118;-81
2022/06/19 07:34:39;;;;;;;10.93;3.75;;;589.50;2432.00;;;;;;5017390;28;20383;-82
2022/06/19 07:37:06;;;;;;;9.02;3.53;;;589.70;2432.00;;;;;;5015976;28;20038;-85
2022/06/19 07:39:35;;;;;;;6.85;3.63;;;614.50;2432.00;;;;;;5015999;28;20029;-83
2022/06/19 07:42:04;;;;;;;5.30;3.83;;;614.60;2432.00;;;;;;5016294;28;20029;-84
2022/06/19 07:44:29;;;;;;;12.02;3.88;;;614.70;2432.00;;;;;;5015871;28;20026;-85
2022/06/19 07:52:23;;;;;;;7.07;4.90;;;640.00;2406.40;;;;;;5037415;28;20036;-84
2022/06/19 07:54:49;;;;;;;13.38;4.20;;;640.20;2380.80;;;;;;5036724;28;20104;-83
2022/06/19 07:57:15;;;;;;;5.72;3.97;;;640.50;2380.80;;;;;;5019171;28;20092;-84
2022/06/19 07:59:41;;;;;;;6.20;3.40;;;;;;;;;;5019327;28;20530;-82
2022/06/19 08:02:07;;;;;;;7.50;4.18;;;;;;;;;;5012259;28;20032;-79
2022/06/19 08:04:33;;;;;;;6.35;4.43;;;;;;;;;;4999412;28;20026;-81
2022/06/19 08:06:59;;;;;;;6.13;3.75;;;640.90;2278.40;;;;;;5017324;28;20026;-83
2022/06/19 08:09:25;;;;;;;6.60;4.75;;;665.70;2227.20;;;;;;4999444;28;20113;-82
2022/06/19 08:11:50;;;;;;;4.90;3.55;;;665.70;2201.60;;;;;;4999480;28;20026;-83
2022/06/19 08:14:16;;;;;;;4.95;3.60;;;665.70;2227.20;;;;;;4999169;28;20451;-78
2022/06/19 08:16:42;;;;;;;6.80;3.47;;;665.90;2176.00;;;;;;5016629;28;20030;-82
2022/06/19 08:19:08;;;;;;;5.13;3.40;;;666.00;2150.40;;;;;;4999493;28;20030;-79
2022/06/19 08:21:34;;;;;;;6.88;5.20;;;665.90;2124.80;;;;;;4999220;28;20383;-81
2022/06/19 08:23:59;;;;;;;9.60;4.90;;;666.00;2124.80;;;;;;5004707;28;20033;-78
2022/06/19 08:26:25;;;;;;;12.35;7.70;;;666.40;2150.40;;;;;;5029271;28;20029;-75
2022/06/19 08:29:03;;;;;;;4.93;3.08;;;691.20;2099.20;;;;;;5026228;28;20065;-74
2022/06/19 08:31:30;;;;;;;4.88;3.00;;;691.20;2073.60;;;;;;5013340;28;20029;-74
2022/06/19 08:33:56;;;;;;;7.10;3.08;;;691.60;1971.20;;;;;;5031946;28;20026;-80
2022/06/19 08:36:24;;;;;;;6.55;3.22;;;691.60;1996.80;;;;;;4998387;28;20041;-79
2022/06/19 08:38:54;;;;;;;4.90;2.70;;;691.70;1945.60;;;;;;4998256;28;20428;-81
2022/06/19 08:41:30;;;;;;;5.80;2.75;;;691.40;1971.20;;;;;;5016510;28;20467;-84
2022/06/19 08:43:56;;;;;;;6.40;3.30;;;691.80;1945.60;;;;;;4998703;28;20037;-79
2022/06/19 08:46:40;;;;;;;4.22;2.65;;;692.10;1945.60;;;;;;4999034;28;20442;-79
2022/06/19 08:49:35;;;;;;;5.35;3.58;;;717.10;1868.80;;;;;;4998702;28;20032;-80
2022/06/19 08:52:32;;;;;;;6.43;3.30;;;717.30;1843.20;;;;;;4998755;28;20026;-81
2022/06/19 08:55:24;;;;;;;4.60;2.60;;;717.50;1843.20;;;;;;5016180;28;20029;-78
2022/06/19 08:58:01;;;;;;;5.53;4.10;;;717.50;1817.60;;;;;;4997453;28;20092;-80
2022/06/19 09:00:49;;;;;;;7.35;3.60;;;717.70;1843.20;;;;;;4998579;28;20026;-78
2022/06/19 09:06:39;;;;;;;5.13;2.80;;;742.50;1817.60;;;;;;5030935;28;20114;-78
2022/06/19 09:09:12;;;;;;;;;;;742.60;1792.00;;;;;;5002252;28;20029;-76
2022/06/19 09:11:44;;;;;;;6.70;3.78;;;;;;;;;;5017372;28;19987;-78
2022/06/19 09:14:13;;;;;;;4.68;2.63;;;;;;;;;;5024722;28;20132;-78
2022/06/19 09:16:57;;;;;;;6.25;3.10;;;;;;;;;;5033823;28;20036;-79
2022/06/19 09:19:24;;;;;;;4.28;2.13;;;;;;;;;;5034298;28;20029;-78
2022/06/19 09:22:02;;;;;;;4.80;3.40;;;;;;;;;;5034160;28;20029;-82
2022/06/19 09:24:37;;;;;;;10.98;5.05;;;;;;;;;;5033794;28;20013;-81
2022/06/19 09:27:03;;;;;;;13.55;10.27;;;743.00;1715.20;;;;;;5037569;28;20032;-79
2022/06/19 09:29:35;;;;;;;7.93;2.83;;;743.00;1740.80;;;;;;5036411;28;20072;-81
2022/06/19 09:32:30;;;;;;;6.07;2.97;;;743.10;1715.20;;;;;;5018410;28;20055;-81
2022/06/19 09:35:09;;;;;;;4.70;2.20;;;742.80;1740.80;;;;;;5033815;28;20033;-80
2022/06/19 09:37:44;;;;;;;10.18;8.75;;;742.70;1766.40;;;;;;5035181;28;20041;-83
2022/06/19 09:40:25;;;;;;;10.63;7.35;;;743.30;1715.20;;;;;;5010861;28;20034;-85
2022/06/19 09:43:11;;;;;;;6.85;2.67;;;743.30;1715.20;;;;;;4998074;28;20056;-82
2022/06/19 09:45:47;;;;;;;7.88;2.95;;;742.80;1715.20;;;;;;4997277;28;20034;-81
2022/06/19 09:48:41;;;;;;;4.97;3.00;;;742.50;1715.20;;;;;;5010998;28;20405;-82
2022/06/19 09:51:13;;;;;;;3.45;2.20;;;742.90;1715.20;;;;;;5017647;28;20029;-81
2022/06/19 09:53:58;;;;;;;8.35;5.82;;;742.90;1689.60;;;;;;5016936;28;20022;-84
2022/06/19 09:56:49;;;;;;;4.55;3.20;;;743.10;1689.60;;;;;;5017258;28;20034;-84
2022/06/19 09:59:39;;;;;;;8.85;3.95;;;743.10;1740.80;;;;;;5016891;28;20045;-83
2022/06/19 10:02:21;;;;;;;7.07;3.33;;;768.00;1664.00;;;;;;5015556;28;20076;-84
2022/06/19 10:05:09;;;;;;;6.85;4.50;;;768.40;1664.00;;;;;;5013662;28;20021;-85
2022/06/19 10:07:53;;;;;;;9.70;4.40;;;768.80;1638.40;;;;;;4997430;28;20088;-84
2022/06/19 10:10:24;;;;;;;4.90;2.55;;;;;;;;;;4997551;28;20028;-85
2022/06/19 10:12:51;;;;;;;11.85;2.90;;;;;;;;;;4997138;28;20025;-86
2022/06/19 10:15:27;;;;;;;4.43;2.15;;;793.80;1664.00;;;;;;4996723;28;20125;-86
2022/06/19 10:18:18;;;;;;;4.75;2.15;;;768.90;1638.40;;;;;;4997428;28;20129;-84
2022/06/19 10:21:09;;;;;;;3.42;2.17;;;768.00;1664.00;;;;;;4997042;28;20052;-85
2022/06/19 10:24:11;;;;;;;4.03;2.08;;;768.00;1715.20;;;;;;4997372;28;20475;-87
2022/06/19 10:26:55;;;;;;;4.75;2.35;;;768.30;1664.00;;;;;;5012891;28;20033;-83
2022/06/19 10:29:21;;;;;;;5.35;2.10;;;768.90;1664.00;;;;;;5016100;28;20045;-84
2022/06/19 10:32:16;;;;;;;7.28;3.10;;;793.60;1638.40;;;;;;5016589;28;20074;-81
2022/06/19 10:35:05;;;;;;;4.00;2.40;;;794.00;1664.00;;;;;;5016331;28;20029;-84
2022/06/19 10:37:52;;;;;;;4.57;2.83;;;794.00;1638.40;;;;;;5016383;28;20025;-84
2022/06/19 10:40:32;;;;;;;7.47;2.45;;;793.60;1638.40;;;;;;5016515;28;20064;-80
2022/06/19 10:43:07;;;;;;;8.63;5.07;;;768.80;1612.80;;;;;;5009398;28;20022;-82
2022/06/19 10:45:44;;;;;;;4.35;3.20;;;793.70;1638.40;;;;;;4996723;28;20034;-83
2022/06/19 10:48:26;;;;;;;7.10;4.78;;;793.80;1638.40;;;;;;5013737;28;20033;-84
2022/06/19 10:51:10;;;;;;;5.68;3.10;;;794.00;1638.40;;;;;;4996242;28;20026;-83
2022/06/19 10:53:45;;;;;;;6.38;4.97;;;794.40;1612.80;;;;;;5001910;28;20026;-82
2022/06/19 10:56:35;;;;;;;8.48;6.60;;;794.50;1587.20;;;;;;4996238;28;20387;-81
2022/06/19 10:59:04;;;;;;;6.15;2.90;;;794.00;1587.20;;;;;;5014312;28;20030;-82
2022/06/19 11:04:47;;;;;;;6.10;2.38;;;793.70;1612.80;;;;;;5023729;28;20080;-83
2022/06/19 11:07:17;;;;;;;4.88;1.92;;;794.30;1587.20;;;;;;5023151;28;20033;-82
2022/06/19 11:09:48;;;;;;;4.57;2.30;;;794.30;1561.60;;;;;;5017012;28;20030;-85
2022/06/19 11:12:27;;;;;;;5.90;2.17;;;794.20;1587.20;;;;;;5012958;28;20026;-87
2022/06/19 11:14:55;;;;;;;5.45;2.80;;;794.00;1561.60;;;;;;4996866;28;20025;-85
2022/06/19 11:17:41;;;;;;;5.72;2.80;;;793.90;1612.80;;;;;;5012415;28;20084;-81
2022/06/19 11:20:17;;;;;;;4.88;2.42;;;768.90;1587.20;;;;;;5012348;28;20033;-83
2022/06/19 11:22:49;;;;;;;6.00;2.45;;;793.60;1612.80;;;;;;5006472;28;20021;-85
2022/06/19 11:25:39;;;;;;;9.88;8.52;;;794.10;1612.80;;;;;;5016003;28;20026;-86
2022/06/19 11:28:17;;;;;;;26.20;23.55;;;819.60;1587.20;;;;;;5015709;28;20025;-86
2022/06/19 11:30:48;;;;;;;5.80;3.80;;;820.10;1587.20;;;;;;5032472;28;20032;-87
2022/06/19 11:33:29;;;;;;;7.13;2.20;;;819.90;1561.60;;;;;;5016174;28;20025;-81
2022/06/19 11:35:59;;;;;;;7.45;2.80;;;819.20;1561.60;;;;;;5016097;28;20116;-84
2022/06/19 11:38:41;;;;;;;4.70;2.10;;;819.20;1561.60;;;;;;5015739;28;20030;-84
2022/06/19 11:41:22;;;;;;;4.72;2.60;;;819.50;1536.00;;;;;;5016079;28;20037;-84
2022/06/19 11:44:15;;;;;;;4.93;1.98;;;819.80;1484.80;;;;;;5016031;28;20029;-87
2022/06/19 11:46:46;;;;;;;4.93;2.97;;;819.30;1484.80;;;;;;5016014;28;20026;-83
2022/06/19 11:49:29;;;;;;;8.52;7.65;;;794.00;1510.40;;;;;;5033873;28;20025;-86
2022/06/19 11:51:59;;;;;;;6.40;4.32;;;794.40;1536.00;;;;;;5033406;28;20021;-83
2022/06/19 11:54:41;;;;;;;5.22;2.00;;;819.60;1536.00;;;;;;5033232;28;20057;-85
2022/06/19 11:57:33;;;;;;;6.05;2.17;;;819.80;1510.40;;;;;;5015658;28;20033;-84
2022/06/19 12:00:02;;;;;;;3.83;1.80;;;819.30;1510.40;;;;;;5015274;28;20037;-83
2022/06/19 12:02:40;;;;;;;3.88;1.80;;;794.10;1561.60;;;;;;5016661;28;20080;-84
2022/06/19 12:05:35;;;;;;;6.70;2.40;;;819.30;1510.40;;;;;;5018962;28;20032;-83
2022/06/19 12:08:33;;;;;;;8.52;1.80;;;819.30;1510.40;;;;;;5035158;28;20030;-85
2022/06/19 12:11:02;;;;;;;4.05;2.03;;;794.50;1536.00;;;;;;5014535;28;20495;-82
2022/06/19 12:13:35;;;;;;;4.15;1.77;;;794.20;1536.00;;;;;;5018784;28;20485;-84
2022/06/19 12:16:09;;;;;;;3.33;2.00;;;819.20;1510.40;;;;;;5035460;28;20124;-83
2022/06/19 12:18:35;;;;;;;5.57;1.85;;;819.30;1510.40;;;;;;5016844;28;20080;-84
2022/06/19 12:21:20;;;;;;;3.75;1.80;;;819.30;1484.80;;;;;;5016052;28;20033;-87
2022/06/19 12:24:12;;;;;;;5.47;2.28;;;819.30;1484.80;;;;;;4999679;28;20459;-90
2022/06/19 12:26:46;;;;;;;6.55;3.65;;;819.60;1484.80;;;;;;5011430;28;20120;-85
2022/06/19 12:29:31;;;;;;;9.32;8.32;;;819.40;1510.40;;;;;;5014255;28;20042;-86
2022/06/19 12:32:23;;;;;;;4.07;2.10;;;844.90;1484.80;;;;;;5015552;28;20044;-86
2022/06/19 12:34:53;;;;;;;4.13;2.00;;;845.10;1484.80;;;;;;5013452;28;20049;-85
2022/06/19 12:37:25;;;;;;;3.17;1.77;;;845.20;1459.20;;;;;;5015659;28;20030;-86
2022/06/19 12:39:51;;;;;;;4.43;2.10;;;845.30;1459.20;;;;;;5015178;28;20032;-81
2022/06/19 12:42:46;;;;;;;5.90;1.92;;;845.20;1459.20;;;;;;5015191;28;20117;-81
2022/06/19 12:45:21;;;;;;;3.83;1.60;;;845.00;1433.60;;;;;;5011704;28;20373;-82
2022/06/19 12:47:58;;;;;;;4.75;1.90;;;819.80;1433.60;;;;;;4995446;28;20034;-83
2022/06/19 12:50:36;;;;;;;3.40;2.03;;;820.10;1433.60;;;;;;4995713;28;20033;-84
2022/06/19 12:53:23;;;;;;;3.25;1.52;;;845.10;1459.20;;;;;;4995717;28;20026;-84
2022/06/19 12:56:15;;;;;;;3.70;1.73;;;845.10;1433.60;;;;;;4995929;28;20069;-82
2022/06/19 12:58:56;;;;;;;6.10;1.70;;;845.20;1433.60;;;;;;4995413;28;20361;-84
2022/06/19 13:01:44;;;;;;;3.17;1.65;;;845.60;1433.60;;;;;;4995315;28;20037;-83